Wilton Manors, Florida
Current Conditions -  °F | °C
As of 5:53 PM on Wednesday 22 Oct 2014 (Local Time) from KFXE Reporting Station
Broken Clouds Broken Clouds  
Wind Chill: 80°   Ceiling: 10000
Heat Index: 83°   Visibility: 10mi
Dew Point: 70°   Wind: 6mph
Humidity: 71%   Direction: 100°E
Pressure: 29.91"   Gusts: NA
Location:  26.1649°N, 80.1136°W
Report Text: KFXE 222153Z 10005KT 10SM BKN100 27/21 A2991 RMK AO2 SLP131 T02670211
Loading
Personal Weather Stations






























Interactive Weather Map
Tropical Storm Tracking
New forecast layout! Learn more

10-Day Weather Forecast

Advertisements
Track Severe Weather on mobile